Time;durP1;ratioP1;P1;durP2;ratioP2;P2;SDS_P1;SDS_P2;PMS_P1;PMS_P2;Temp;Humidity;BMP_temperature;BMP_pressure;BME280_temperature;BME280_humidity;BME280_pressure;Samples;Min_cycle;Max_cycle;Signal;HPM_P1;HPM_P2
2022/10/25 00:01:35;;;;;;;187.55;175.85;;;11.40;99.90;;;11.63;100.00;100447.53;4984718;28;20212;-68
2022/10/25 00:04:03;;;;;;;194.07;182.13;;;11.50;99.90;;;11.68;100.00;100449.34;4982291;28;20195;-69
2022/10/25 00:06:31;;;;;;;199.27;187.35;;;11.40;99.90;;;11.59;100.00;100432.50;4971306;28;20212;-68
2022/10/25 00:08:59;;;;;;;192.05;180.50;;;11.40;99.90;;;11.62;100.00;100432.53;5002784;28;20218;-69
2022/10/25 00:11:30;;;;;;;195.80;181.40;;;11.50;99.90;;;11.67;100.00;100439.63;4987151;28;20216;-69
2022/10/25 00:14:03;;;;;;;184.65;172.63;;;11.50;99.90;;;11.71;100.00;100441.44;4991492;28;20211;-68
2022/10/25 00:16:36;;;;;;;190.88;179.55;;;11.60;99.90;;;11.70;100.00;100442.31;4990134;28;20219;-68
2022/10/25 00:19:04;;;;;;;189.25;177.80;;;11.50;99.90;;;11.66;100.00;100444.91;4994144;28;20218;-69
2022/10/25 00:21:32;;;;;;;191.30;179.38;;;11.50;99.90;;;11.51;100.00;100429.81;4981067;28;20219;-68
2022/10/25 00:24:00;;;;;;;195.90;183.38;;;11.40;99.90;;;11.41;100.00;100431.53;4991497;28;20595;-69
2022/10/25 00:26:28;;;;;;;193.27;181.73;;;11.30;99.90;;;11.40;100.00;100435.06;4994561;28;20211;-69
2022/10/25 00:28:56;;;;;;;186.77;176.98;;;11.30;99.90;;;11.41;100.00;100438.59;4954399;28;20470;-69
2022/10/25 00:31:24;;;;;;;193.85;181.70;;;11.30;99.90;;;11.32;100.00;100431.50;4968560;28;20226;-68
2022/10/25 00:33:52;;;;;;;188.40;177.00;;;11.20;99.90;;;11.34;100.00;100442.09;4977899;28;20212;-68
2022/10/25 00:36:23;;;;;;;205.23;190.43;;;11.20;99.90;;;11.18;100.00;100436.69;5000364;28;20211;-68
2022/10/25 00:38:53;;;;;;;195.20;182.63;;;11.10;99.90;;;11.17;100.00;100444.63;4958399;28;20228;-68
2022/10/25 00:41:25;;;;;;;194.75;182.98;;;11.00;99.90;;;11.20;100.00;100468.47;4988920;28;20539;-68
2022/10/25 00:44:32;;;;;;;205.23;191.13;;;11.00;99.90;;;11.12;100.00;100460.47;4989227;28;20246;-68
2022/10/25 00:47:10;;;;;;;194.52;181.65;;;11.00;99.90;;;11.15;100.00;100470.19;4981901;28;20227;-68
2022/10/25 00:49:39;;;;;;;185.02;173.32;;;11.00;99.90;;;11.11;100.00;100466.66;5004359;28;20659;-68
2022/10/25 00:52:07;;;;;;;188.82;175.07;;;11.00;99.90;;;11.08;100.00;100478.97;4983802;28;20207;-69
2022/10/25 00:54:43;;;;;;;187.15;173.98;;;11.00;99.90;;;11.07;100.00;100475.44;4999218;28;20208;-68
2022/10/25 00:57:17;;;;;;;179.45;167.90;;;11.00;99.90;;;10.98;100.00;100488.59;4971044;28;20215;-68
2022/10/25 00:59:46;;;;;;;186.30;173.63;;;10.90;99.90;;;11.00;100.00;100496.53;4988990;28;20208;-68
2022/10/25 01:02:15;;;;;;;175.70;164.05;;;10.90;99.90;;;10.99;100.00;100500.06;5003839;28;20204;-68
2022/10/25 01:04:43;;;;;;;182.00;169.90;;;10.80;99.90;;;10.99;100.00;100500.94;4973503;28;20231;-68
2022/10/25 01:07:11;;;;;;;189.10;176.88;;;10.80;99.90;;;10.96;100.00;100506.22;4985042;28;20228;-68
2022/10/25 01:09:39;;;;;;;198.18;185.02;;;10.80;99.90;;;10.94;100.00;100510.63;4970102;28;20209;-69
2022/10/25 01:12:07;;;;;;;192.70;179.85;;;10.80;99.90;;;10.99;100.00;100518.59;4966039;28;20208;-68
2022/10/25 01:14:42;;;;;;;185.15;173.90;;;10.80;99.90;;;10.92;100.00;100516.75;4960373;28;20212;-69
2022/10/25 01:17:35;;;;;;;189.80;177.48;;;10.80;99.90;;;10.88;100.00;100529.06;4985159;28;20224;-69
2022/10/25 01:20:27;;;;;;;186.70;175.43;;;10.80;99.90;;;10.87;100.00;100519.38;5005562;28;20210;-69
2022/10/25 01:23:20;;;;;;;192.88;181.13;;;10.70;99.90;;;10.81;100.00;100516.66;5017815;28;20231;-70
2022/10/25 01:26:06;;;;;;;189.25;177.35;;;10.70;99.90;;;10.76;100.00;100511.34;5017636;28;20218;-70
2022/10/25 01:29:02;;;;;;;188.63;176.38;;;10.70;99.90;;;10.76;100.00;100524.56;5019211;28;20243;-69
2022/10/25 01:31:49;;;;;;;192.30;179.48;;;10.70;99.90;;;10.80;100.00;100529.00;4988802;28;20211;-69
2022/10/25 01:35:06;;;;;;;193.90;181.60;;;10.70;99.90;;;10.82;100.00;100534.31;4952691;28;20229;-70
2022/10/25 01:38:02;;;;;;;190.10;178.73;;;10.70;99.90;;;10.82;100.00;100534.31;5003573;28;20228;-70
2022/10/25 01:40:37;;;;;;;187.63;175.57;;;10.70;99.90;;;10.73;100.00;100521.88;5000149;28;20200;-70
2022/10/25 01:43:17;;;;;;;186.43;174.68;;;10.60;99.90;;;10.78;100.00;100527.22;4986525;28;20231;-70
2022/10/25 01:46:02;;;;;;;185.88;173.35;;;10.60;99.90;;;10.66;100.00;100513.88;4972553;28;20216;-69
2022/10/25 01:48:47;;;;;;;191.27;178.35;;;10.60;99.90;;;10.66;100.00;100527.09;5002821;28;20691;-70
2022/10/25 01:51:17;;;;;;;191.65;179.02;;;10.50;99.90;;;10.67;100.00;100535.03;4986506;28;20204;-69
2022/10/25 01:53:50;;;;;;;201.00;186.15;;;10.50;99.90;;;10.74;100.00;100541.28;5000120;28;20238;-69
2022/10/25 01:56:32;;;;;;;186.50;174.82;;;10.60;99.90;;;10.76;100.00;100539.53;4982545;28;20208;-69
2022/10/25 01:59:25;;;;;;;186.00;174.40;;;10.60;99.90;;;10.83;100.00;100549.31;4964359;28;20235;-69
2022/10/25 02:02:21;;;;;;;189.50;176.55;;;10.70;99.90;;;10.85;100.00;100555.50;5009159;28;20227;-69
2022/10/25 02:04:58;;;;;;;190.13;177.57;;;10.70;99.90;;;10.84;100.00;100554.63;4988130;28;20235;-69
2022/10/25 02:07:41;;;;;;;189.35;177.02;;;10.70;99.90;;;10.89;100.00;100566.13;4985544;28;20239;-69
2022/10/25 02:10:14;;;;;;;179.05;169.45;;;10.70;99.90;;;10.95;100.00;100570.59;4968007;28;20208;-69
2022/10/25 02:12:52;;;;;;;182.30;170.65;;;10.80;99.90;;;10.98;100.00;100575.91;5002973;28;20203;-69
2022/10/25 02:16:00;;;;;;;178.15;166.75;;;10.80;99.90;;;10.96;100.00;100577.66;4985446;28;20648;-69
2022/10/25 02:18:34;;;;;;;182.85;170.27;;;10.80;99.90;;;10.97;100.00;100576.78;5003224;28;20247;-69
2022/10/25 02:21:05;;;;;;;188.60;175.73;;;10.80;99.90;;;10.99;100.00;100571.50;4969705;28;20279;-69
2022/10/25 02:23:35;;;;;;;179.45;169.07;;;10.90;99.90;;;11.03;100.00;100575.97;4987678;28;20223;-69
2022/10/25 02:26:08;;;;;;;191.15;178.73;;;10.90;99.90;;;10.98;100.00;100575.91;4967395;28;20204;-69
2022/10/25 02:28:39;;;;;;;187.52;175.07;;;10.90;99.90;;;10.97;100.00;100576.78;4972048;28;20243;-69
2022/10/25 02:31:13;;;;;;;192.50;179.82;;;10.80;99.90;;;10.96;100.00;100580.31;4964936;28;20235;-69
2022/10/25 02:33:46;;;;;;;190.43;178.70;;;10.80;99.90;;;10.94;100.00;100582.06;4982318;28;20541;-69
2022/10/25 02:36:21;;;;;;;196.32;182.10;;;10.80;99.90;;;10.93;100.00;100574.97;4954417;28;20211;-69
2022/10/25 02:38:51;;;;;;;184.02;172.65;;;10.80;99.90;;;10.92;100.00;100582.91;4985144;28;20231;-69
2022/10/25 02:41:21;;;;;;;199.48;186.80;;;10.80;99.90;;;10.92;100.00;100580.25;4971684;28;20208;-69
2022/10/25 02:43:49;;;;;;;249.15;232.48;;;10.80;99.90;;;10.85;100.00;100582.84;4982673;28;20232;-69
2022/10/25 02:46:20;;;;;;;200.63;187.77;;;10.80;99.90;;;10.83;100.00;100589.88;4989241;28;20219;-69
2022/10/25 02:48:50;;;;;;;192.15;181.43;;;10.70;99.90;;;10.85;100.00;100589.91;4966067;28;20231;-69
2022/10/25 02:51:18;;;;;;;214.20;199.75;;;10.70;99.90;;;10.85;100.00;100590.78;5001627;28;20204;-69
2022/10/25 02:53:46;;;;;;;208.13;194.80;;;10.70;99.90;;;10.89;100.00;100600.53;4982562;28;20220;-69
2022/10/25 02:56:19;;;;;;;200.00;187.48;;;10.80;99.90;;;10.82;100.00;100590.75;4971067;28;20215;-69
2022/10/25 02:58:50;;;;;;;208.07;194.13;;;10.70;99.90;;;10.74;100.00;100588.91;4981290;28;20228;-69
2022/10/25 03:01:20;;;;;;;212.43;198.77;;;10.60;99.90;;;10.72;100.00;100593.28;4985593;28;20223;-69
2022/10/25 03:03:48;;;;;;;212.13;198.77;;;10.60;99.90;;;10.76;100.00;100603.91;4970127;28;20228;-69
2022/10/25 03:06:17;;;;;;;215.55;201.80;;;10.60;99.90;;;10.76;100.00;100608.31;4987085;28;21470;-68
2022/10/25 03:08:45;;;;;;;214.23;201.68;;;10.60;99.90;;;10.74;100.00;100605.66;4986127;28;20228;-69
2022/10/25 03:11:15;;;;;;;224.93;210.63;;;10.60;99.90;;;10.76;100.00;100608.31;4972063;28;20203;-68
2022/10/25 03:13:43;;;;;;;240.23;225.45;;;10.60;99.90;;;10.74;100.00;100612.69;4975444;28;20208;-68
2022/10/25 03:16:11;;;;;;;227.32;212.68;;;10.60;99.90;;;10.75;100.00;100615.38;4989238;28;20218;-68
2022/10/25 03:18:39;;;;;;;236.88;222.43;;;10.60;99.90;;;10.73;100.00;100617.09;4986473;28;20695;-68
2022/10/25 03:21:07;;;;;;;258.48;241.68;;;10.60;99.90;;;10.71;100.00;100617.97;4969545;28;20218;-68
2022/10/25 03:23:35;;;;;;;247.52;232.32;;;10.60;99.90;;;10.70;100.00;100618.84;4987364;28;20238;-67
2022/10/25 03:26:03;;;;;;;273.23;253.05;;;10.60;99.90;;;10.63;100.00;100614.34;4969299;28;20204;-67
2022/10/25 03:28:31;;;;;;;270.80;252.63;;;10.60;99.90;;;10.68;100.00;100623.22;4955347;28;20228;-67
2022/10/25 03:30:59;;;;;;;266.75;249.40;;;10.60;99.90;;;10.65;100.00;100631.13;4987836;28;20208;-67
2022/10/25 03:33:27;;;;;;;287.75;268.85;;;10.50;99.90;;;10.69;100.00;100630.28;5002878;28;22264;-67
2022/10/25 03:35:56;;;;;;;277.10;259.48;;;10.60;99.90;;;10.62;100.00;100633.72;4989025;28;20200;-68
2022/10/25 03:38:24;;;;;;;266.05;249.55;;;10.50;99.90;;;10.66;100.00;100640.81;4984462;28;20224;-68
2022/10/25 03:40:52;;;;;;;258.88;242.57;;;10.50;99.90;;;10.62;100.00;100647.84;4989529;28;20219;-67
2022/10/25 03:43:20;;;;;;;266.95;249.30;;;10.50;99.90;;;10.58;100.00;100641.63;4956204;28;20211;-67
2022/10/25 03:45:53;;;;;;;269.42;253.15;;;10.50;99.90;;;10.60;100.00;100648.69;4974787;28;20210;-67
2022/10/25 03:48:21;;;;;;;250.60;234.05;;;10.50;99.90;;;10.62;100.00;100653.13;4976851;28;20224;-66
2022/10/25 03:50:49;;;;;;;268.90;250.98;;;10.50;99.90;;;10.57;100.00;100655.72;5004841;28;20204;-67
2022/10/25 03:53:16;;;;;;;282.52;262.77;;;10.50;99.90;;;10.55;100.00;100659.22;4973005;28;20212;-67
2022/10/25 03:55:44;;;;;;;286.83;266.35;;;10.50;99.90;;;10.56;100.00;100667.16;4992287;28;20212;-66
2022/10/25 03:58:12;;;;;;;277.98;259.58;;;10.50;99.90;;;10.54;100.00;100666.25;5004466;28;20251;-66
2022/10/25 04:00:40;;;;;;;287.55;267.63;;;10.50;99.90;;;10.53;100.00;100667.13;4986300;28;20574;-66
2022/10/25 04:03:09;;;;;;;301.55;280.63;;;10.50;99.90;;;10.56;100.00;100672.44;4969342;28;20203;-69
2022/10/25 04:05:36;;;;;;;277.70;259.45;;;10.40;99.90;;;10.47;100.00;100669.69;4961809;28;20224;-68
2022/10/25 04:08:05;;;;;;;266.67;249.25;;;10.40;99.90;;;10.55;100.00;100683.91;4957201;28;20220;-68
2022/10/25 04:10:33;;;;;;;262.85;246.30;;;10.50;99.90;;;10.54;100.00;100674.19;5009560;28;20223;-68
2022/10/25 04:13:01;;;;;;;260.60;243.98;;;10.50;99.90;;;10.46;100.00;100673.19;4992537;28;20207;-68
2022/10/25 04:15:29;;;;;;;261.23;245.00;;;10.40;99.90;;;10.50;100.00;100682.94;4993513;28;20784;-68
2022/10/25 04:17:56;;;;;;;276.67;259.15;;;10.40;99.90;;;10.51;100.00;100679.44;4992158;28;20236;-68
2022/10/25 04:20:24;;;;;;;262.20;245.30;;;10.40;99.90;;;10.49;100.00;100688.22;4999237;28;20204;-68
2022/10/25 04:22:56;;;;;;;256.60;239.85;;;10.30;99.90;;;10.41;100.00;100682.81;5003218;28;20215;-68
2022/10/25 04:25:26;;;;;;;249.98;233.80;;;10.40;99.90;;;10.40;100.00;100690.69;4987893;28;20698;-68
2022/10/25 04:27:54;;;;;;;268.38;251.32;;;10.30;99.90;;;10.40;100.00;100681.06;4969372;28;20231;-68
2022/10/25 04:30:22;;;;;;;255.15;239.13;;;10.30;99.90;;;10.34;100.00;100686.22;4985997;28;20223;-68
2022/10/25 04:32:50;;;;;;;241.65;226.63;;;10.30;99.90;;;10.34;100.00;100678.28;4970655;28;20225;-68
2022/10/25 04:35:18;;;;;;;255.40;238.73;;;10.20;99.90;;;10.31;100.00;100680.88;4991227;28;20706;-67
2022/10/25 04:37:50;;;;;;;243.80;230.55;;;10.20;99.90;;;10.33;100.00;100670.34;4999550;28;20239;-68
2022/10/25 04:40:18;;;;;;;257.15;240.25;;;10.20;99.90;;;10.39;100.00;100679.25;4988622;28;20212;-67
2022/10/25 04:42:53;;;;;;;258.98;242.48;;;10.80;99.90;;;10.44;100.00;100687.25;4989750;28;21136;-68
2022/10/25 04:45:24;;;;;;;257.88;241.13;;;10.30;99.90;;;10.36;100.00;100675.66;4987026;28;20228;-68
2022/10/25 04:47:52;;;;;;;254.68;238.23;;;10.30;99.90;;;10.38;100.00;100688.03;4988991;28;20228;-67
2022/10/25 04:50:21;;;;;;;271.80;251.80;;;10.30;99.90;;;10.41;100.00;100695.16;5004555;28;20219;-68
2022/10/25 04:52:51;;;;;;;264.73;247.13;;;10.30;99.90;;;10.36;100.00;100692.41;4957870;28;20196;-67
2022/10/25 04:55:19;;;;;;;260.98;242.75;;;10.30;99.90;;;10.35;100.00;100687.09;4962800;28;20215;-67
2022/10/25 04:57:47;;;;;;;252.88;236.60;;;10.20;99.90;;;10.39;100.00;100696.84;4986493;28;20236;-68
2022/10/25 05:00:16;;;;;;;263.92;246.15;;;10.90;99.90;;;10.42;100.00;100694.28;4976470;28;20559;-67
2022/10/25 05:02:44;;;;;;;245.50;229.52;;;10.30;99.90;;;10.38;100.00;100701.25;4989681;28;20227;-68
2022/10/25 05:05:12;;;;;;;255.82;239.18;;;10.30;99.90;;;10.38;100.00;100708.28;5003438;28;20215;-68
2022/10/25 05:07:40;;;;;;;251.90;236.13;;;10.30;99.90;;;10.32;100.00;100711.75;4983895;28;20240;-67
2022/10/25 05:10:09;;;;;;;263.70;246.73;;;10.30;99.90;;;10.31;100.00;100719.66;4990334;28;20204;-68
2022/10/25 05:12:37;;;;;;;271.02;253.00;;;10.20;99.90;;;10.33;100.00;100726.75;4991322;28;20683;-68
2022/10/25 05:15:06;;;;;;;272.73;255.15;;;10.20;99.90;;;10.28;100.00;100731.06;4974299;28;20214;-68
2022/10/25 05:17:34;;;;;;;272.58;254.45;;;10.20;99.90;;;10.33;100.00;100726.75;4973100;28;20702;-68
2022/10/25 05:20:03;;;;;;;261.35;244.20;;;10.20;99.90;;;10.27;100.00;100734.56;4959035;28;20208;-68
2022/10/25 05:22:31;;;;;;;270.42;253.07;;;10.20;99.90;;;10.15;100.00;100721.16;5021831;28;20215;-68
2022/10/25 05:24:59;;;;;;;262.88;244.75;;;10.10;99.90;;;10.14;100.00;100717.63;5007870;28;20219;-68
2022/10/25 05:27:26;;;;;;;251.75;235.68;;;10.10;99.90;;;10.11;100.00;100716.69;4967143;28;20224;-68
2022/10/25 05:29:55;;;;;;;264.25;246.32;;;10.00;99.90;;;10.20;100.00;100730.06;5017514;28;20284;-69
2022/10/25 05:32:22;;;;;;;274.67;256.13;;;10.10;99.90;;;10.16;100.00;100725.56;4983829;28;20203;-68
2022/10/25 05:34:50;;;;;;;277.65;260.27;;;10.10;99.90;;;10.16;100.00;100722.91;4972651;28;20209;-68
2022/10/25 05:37:18;;;;;;;264.38;246.98;;;10.10;99.90;;;10.12;100.00;100721.09;4954361;28;20231;-68
2022/10/25 05:39:48;;;;;;;282.83;261.70;;;10.10;99.90;;;10.17;100.00;100725.59;4996338;28;20203;-68
2022/10/25 05:42:15;;;;;;;270.00;251.00;;;10.10;99.90;;;10.12;100.00;100721.97;4959358;28;20208;-68
2022/10/25 05:44:43;;;;;;;279.48;259.50;;;10.10;99.90;;;10.05;100.00;100719.22;5020381;28;20231;-68
2022/10/25 05:47:11;;;;;;;253.10;237.40;;;10.00;99.90;;;10.13;100.00;100731.69;4981668;28;20236;-68
2022/10/25 05:49:41;;;;;;;257.48;239.95;;;10.00;99.90;;;10.15;100.00;100737.00;4988517;28;20201;-68
2022/10/25 05:52:09;;;;;;;266.98;249.05;;;10.00;99.90;;;10.11;100.00;100738.72;4972333;28;20204;-68
2022/10/25 05:54:37;;;;;;;263.50;245.48;;;10.10;99.90;;;10.08;100.00;100730.72;5003050;28;20214;-68
2022/10/25 05:57:05;;;;;;;255.63;238.38;;;10.00;99.90;;;10.09;100.00;100734.25;4969806;28;20235;-68
2022/10/25 05:59:33;;;;;;;260.27;243.32;;;10.00;99.90;;;10.08;100.00;100740.41;4965335;28;20200;-68
2022/10/25 06:02:00;;;;;;;264.02;246.48;;;10.00;99.90;;;10.07;100.00;100738.63;4986192;28;20211;-68
2022/10/25 06:04:29;;;;;;;264.23;246.75;;;10.00;99.90;;;10.02;100.00;100746.50;4967542;28;20633;-68
2022/10/25 06:06:56;;;;;;;272.77;253.98;;;9.90;99.90;;;10.06;100.00;100750.06;4968227;28;20228;-68
2022/10/25 06:09:24;;;;;;;261.83;243.93;;;10.00;99.90;;;10.02;100.00;100745.59;4991740;28;20208;-68
2022/10/25 06:11:52;;;;;;;282.83;262.75;;;9.90;99.90;;;9.93;100.00;100744.59;4988751;28;20671;-68
2022/10/25 06:14:20;;;;;;;279.23;259.55;;;9.90;99.90;;;9.98;100.00;100749.06;4982373;28;20215;-68
2022/10/25 06:16:48;;;;;;;253.32;236.57;;;9.90;99.90;;;9.94;100.00;100746.38;4948606;28;20203;-68
2022/10/25 06:19:16;;;;;;;265.70;247.48;;;9.80;99.90;;;9.90;100.00;100749.81;4996988;28;20216;-68
2022/10/25 06:21:43;;;;;;;252.23;236.10;;;9.90;99.90;;;9.84;100.00;100740.91;4982020;28;20565;-68
2022/10/25 06:24:12;;;;;;;245.40;229.75;;;;;;;9.85;100.00;100748.84;4952253;28;20563;-68
2022/10/25 06:26:39;;;;;;;284.67;262.05;;;9.80;99.90;;;9.85;100.00;100754.13;4991854;28;20236;-68
2022/10/25 06:29:08;;;;;;;290.70;269.52;;;9.80;99.90;;;9.81;100.00;100749.66;4965575;28;20219;-68
2022/10/25 06:31:37;;;;;;;308.17;284.83;;;9.70;99.90;;;9.86;100.00;100749.75;4993842;28;20230;-68
2022/10/25 06:34:05;;;;;;;302.50;281.00;;;9.70;99.90;;;9.88;100.00;100759.47;4957516;28;20228;-68
2022/10/25 06:36:33;;;;;;;316.92;292.85;;;;;;;9.88;100.00;100767.41;4958437;28;20219;-68
2022/10/25 06:39:01;;;;;;;326.10;300.52;;;;;;;9.89;100.00;100769.19;4991073;28;20203;-68
2022/10/25 06:41:35;;;;;;;311.95;288.00;;;9.90;99.90;;;9.97;100.00;100784.25;5011367;28;20224;-68
2022/10/25 06:44:05;;;;;;;301.40;279.73;;;10.00;99.90;;;10.09;100.00;100800.31;4973448;28;20223;-68
2022/10/25 06:46:38;;;;;;;303.38;280.40;;;10.10;99.90;;;10.34;100.00;100805.19;4951374;28;20228;-68
2022/10/25 06:49:26;;;;;;;304.80;282.63;;;10.40;99.90;;;10.65;100.00;100830.38;4979339;28;20214;-68
2022/10/25 06:51:54;;;;;;;270.52;252.32;;;10.50;99.90;;;10.58;100.00;100818.81;5000696;28;20208;-68
2022/10/25 06:54:24;;;;;;;268.70;251.05;;;10.50;99.90;;;10.53;100.00;100820.50;4977288;28;20205;-68
2022/10/25 06:56:52;;;;;;;249.85;233.10;;;10.50;99.90;;;10.55;100.00;100821.41;4978218;28;20227;-68
2022/10/25 06:59:20;;;;;;;250.50;234.00;;;10.50;99.90;;;10.55;100.00;100829.34;5005971;28;20208;-68
2022/10/25 07:01:48;;;;;;;241.65;225.98;;;10.50;99.90;;;10.64;100.00;100840.94;4968320;28;20214;-68
2022/10/25 07:04:17;;;;;;;256.10;239.23;;;10.50;99.90;;;10.90;100.00;100864.25;4989595;28;20219;-68
2022/10/25 07:06:45;;;;;;;243.40;228.00;;;10.90;99.90;;;11.13;100.00;100866.34;4964796;28;20599;-68
2022/10/25 07:09:17;;;;;;;250.35;233.18;;;11.00;99.90;;;11.25;100.00;100871.78;4986921;28;20211;-68
2022/10/25 07:11:45;;;;;;;253.27;236.40;;;11.10;99.90;;;11.50;100.00;100889.78;4994107;28;20219;-68
2022/10/25 07:14:14;;;;;;;239.50;224.00;;;11.50;99.90;;;11.59;100.00;100880.16;4985683;28;20211;-68
2022/10/25 07:16:42;;;;;;;256.77;239.10;;;11.60;99.90;;;11.77;100.00;100886.63;4947442;28;20223;-68
2022/10/25 07:19:10;;;;;;;325.70;300.95;;;11.60;99.90;;;11.90;100.00;100890.31;4958963;28;20219;-69
2022/10/25 07:21:38;;;;;;;269.95;249.70;;;11.70;99.90;;;12.04;100.00;100888.69;4960423;28;20675;-69
2022/10/25 07:24:09;;;;;;;250.68;235.10;;;11.90;99.90;;;12.25;100.00;100890.66;5001023;28;20210;-69
2022/10/25 07:26:37;;;;;;;304.45;283.73;;;12.20;99.90;;;12.34;100.00;100885.44;4998733;28;20243;-69
2022/10/25 07:29:05;;;;;;;272.67;256.33;;;12.20;99.90;;;12.51;100.00;100890.88;4983545;28;20204;-69
2022/10/25 07:31:40;;;;;;;281.98;265.40;;;12.40;99.90;;;12.64;100.00;100889.22;4971324;28;20262;-69
2022/10/25 07:37:12;;;;;;;261.67;247.85;;;12.60;99.90;;;12.93;100.00;100895.63;4868464;23;20252;-75
2022/10/25 07:39:40;;;;;;;270.20;255.60;;;12.80;99.90;;;13.05;100.00;100903.69;4801518;29;20210;-76
2022/10/25 07:42:08;;;;;;;251.43;238.88;;;12.90;99.90;;;13.24;100.00;100902.06;4819357;29;20234;-77
2022/10/25 07:44:36;;;;;;;258.52;246.00;;;13.10;99.90;;;13.29;100.00;100899.44;4819339;29;20219;-77
2022/10/25 07:47:04;;;;;;;246.38;233.90;;;13.20;99.90;;;13.33;100.00;100893.28;4817299;29;20238;-80
2022/10/25 07:49:32;;;;;;;267.95;254.07;;;;;;;13.50;100.00;100888.03;4812782;29;20207;-77
2022/10/25 07:52:00;;;;;;;281.90;267.80;;;13.30;99.90;;;13.67;100.00;100892.53;4816247;29;20222;-75
2022/10/25 07:54:28;;;;;;;277.85;264.70;;;13.50;99.90;;;13.80;100.00;100888.16;4818395;29;20214;-76
2022/10/25 07:56:56;;;;;;;274.17;261.35;;;13.70;99.90;;;13.79;100.00;100878.41;4823524;29;20227;-75
2022/10/25 07:59:25;;;;;;;299.83;285.70;;;13.60;99.90;;;13.89;100.00;100880.19;4819199;29;20226;-75
2022/10/25 08:01:54;;;;;;;321.20;305.90;;;13.70;99.90;;;13.86;100.00;100863.34;4824624;29;20215;-76
2022/10/25 08:04:22;;;;;;;333.00;316.80;;;13.70;99.90;;;13.91;100.00;100873.13;4821480;29;20211;-75
2022/10/25 08:06:50;;;;;;;333.88;317.33;;;13.80;99.90;;;14.01;100.00;100866.94;4817815;29;20245;-76
2022/10/25 08:09:19;;;;;;;341.15;324.83;;;13.90;99.90;;;14.02;100.00;100862.50;4815819;29;20211;-74
2022/10/25 08:12:04;;;;;;;361.50;344.13;;;13.80;99.90;;;14.21;100.00;100863.41;4822466;29;20294;-75
2022/10/25 08:14:33;;;;;;;371.13;352.45;;;13.90;99.90;;;13.98;100.00;100836.78;4803620;29;20199;-75
2022/10/25 08:17:07;;;;;;;365.52;346.65;;;13.90;99.90;;;13.70;100.00;100828.75;4818439;29;20233;-75
2022/10/25 08:19:35;;;;;;;380.83;361.90;;;13.50;99.90;;;13.54;100.00;100824.28;4823713;29;20222;-75
2022/10/25 08:22:04;;;;;;;381.17;361.20;;;13.40;99.90;;;13.56;100.00;100840.22;4820467;29;20214;-74
2022/10/25 08:24:33;;;;;;;387.98;368.83;;;;;;;13.44;100.00;100839.31;4819522;29;20214;-75
2022/10/25 08:27:01;;;;;;;404.15;383.77;;;13.30;99.90;;;13.46;100.00;100857.91;4818687;29;20246;-75
2022/10/25 08:29:31;;;;;;;417.77;396.50;;;13.30;99.90;;;13.37;100.00;100849.91;4821795;29;20218;-75
2022/10/25 08:32:00;;;;;;;412.55;391.55;;;;;;;13.53;100.00;100878.31;4816094;29;20210;-76
2022/10/25 08:34:28;;;;;;;475.67;449.85;;;13.30;99.90;;;13.46;100.00;100865.88;4820236;29;20589;-75
2022/10/25 08:37:00;;;;;;;430.58;408.23;;;13.40;99.90;;;13.55;100.00;100876.53;4812912;29;20270;-75
2022/10/25 08:39:28;;;;;;;452.27;427.83;;;13.30;99.90;;;13.47;100.00;100861.47;4826583;29;20211;-75
2022/10/25 08:42:01;;;;;;;442.20;418.52;;;13.40;99.90;;;13.56;100.00;100872.13;4818934;29;20240;-76
2022/10/25 08:44:44;;;;;;;454.17;429.52;;;13.50;99.90;;;13.75;100.00;100901.44;4819955;29;20221;-75
2022/10/25 08:47:32;;;;;;;438.70;415.67;;;13.70;99.90;;;13.96;100.00;100915.66;4810703;29;20230;-75
2022/10/25 08:50:20;;;;;;;453.13;427.77;;;13.80;99.90;;;13.98;100.00;100914.78;4817451;29;20221;-76
2022/10/25 08:52:55;;;;;;;426.95;405.42;;;13.90;99.90;;;14.05;100.00;100905.94;4818159;29;20210;-75
2022/10/25 08:55:35;;;;;;;419.30;397.83;;;13.90;99.90;;;14.17;100.00;100915.72;4817928;29;20242;-75
2022/10/25 08:58:35;;;;;;;436.25;414.60;;;14.10;99.90;;;14.30;100.00;100924.63;4814614;29;20220;-75
2022/10/25 09:01:18;;;;;;;457.35;433.52;;;14.10;99.90;;;14.42;100.00;100914.06;4822476;29;20226;-75
2022/10/25 09:03:46;;;;;;;429.67;408.10;;;14.20;99.90;;;14.38;100.00;100902.47;4834026;29;20214;-75
2022/10/25 09:06:45;;;;;;;442.73;421.20;;;14.20;99.90;;;14.53;100.00;100906.06;4816197;29;20241;-75
2022/10/25 09:09:32;;;;;;;497.00;470.08;;;14.50;99.90;;;14.64;100.00;100897.19;4822442;29;20587;-75
2022/10/25 09:12:21;;;;;;;514.22;486.25;;;14.50;99.90;;;14.64;100.00;100891.00;4821124;29;20664;-76
2022/10/25 09:15:03;;;;;;;507.45;479.80;;;14.90;99.90;;;15.14;100.00;100885.59;4820675;29;20215;-76
2022/10/25 09:17:47;;;;;;;524.33;495.20;;;15.20;99.90;;;15.44;100.00;100878.38;4822228;29;20214;-75
2022/10/25 09:20:40;;;;;;;498.38;472.27;;;15.20;99.90;;;15.44;100.00;100865.94;4813491;29;20216;-75
2022/10/25 09:23:29;;;;;;;529.20;501.25;;;15.30;99.90;;;15.41;100.00;100847.31;4820690;29;20206;-75
2022/10/25 09:26:02;;;;;;;527.60;500.10;;;15.00;99.90;;;15.24;100.00;100843.81;4821499;29;20230;-76
2022/10/25 09:29:15;;;;;;;528.67;500.38;;;15.00;99.90;;;15.06;100.00;100844.78;4819983;29;20270;-75
2022/10/25 09:31:53;;;;;;;493.40;468.02;;;14.80;99.90;;;14.90;100.00;100843.91;4817171;29;20206;-75
2022/10/25 09:34:22;;;;;;;497.92;473.45;;;14.60;99.90;;;14.85;100.00;100832.41;4822403;29;20222;-75
2022/10/25 09:37:24;;;;;;;494.58;468.80;;;14.70;99.90;;;14.87;100.00;100841.25;4817915;29;20246;-76
2022/10/25 09:39:58;;;;;;;503.50;478.15;;;14.80;99.90;;;15.04;100.00;100855.44;4812471;29;20218;-75
2022/10/25 09:42:50;;;;;;;506.25;481.23;;;14.90;99.90;;;15.19;100.00;100874.94;4820770;29;20210;-75
2022/10/25 09:45:50;;;;;;;531.58;505.15;;;15.10;99.90;;;15.30;100.00;100881.09;4790378;29;20242;-76
2022/10/25 09:48:42;;;;;;;520.92;494.35;;;15.20;99.90;;;15.42;100.00;100889.06;4801198;29;20241;-75
2022/10/25 09:51:17;;;;;;;520.28;494.63;;;15.20;99.90;;;15.35;100.00;100884.66;4816434;29;20214;-75
2022/10/25 09:53:46;;;;;;;528.08;502.10;;;15.20;99.90;;;15.47;100.00;100894.38;4821123;29;20214;-75
2022/10/25 09:56:16;;;;;;;534.30;507.30;;;;;;;15.53;100.00;100887.25;4812075;29;20226;-75
2022/10/25 09:58:47;;;;;;;539.83;513.20;;;;;;;15.54;100.00;100882.78;4818727;29;20222;-76
2022/10/25 10:01:24;;;;;;;510.60;484.92;;;15.40;99.90;;;15.64;100.00;100881.94;4800942;29;20217;-76
2022/10/25 10:04:13;;;;;;;482.80;460.20;;;15.50;99.90;;;15.73;100.00;100884.56;4823798;29;20234;-76
2022/10/25 10:06:41;;;;;;;476.15;453.65;;;;;;;15.87;100.00;100881.81;4815751;29;20246;-75
2022/10/25 10:09:12;;;;;;;453.48;432.17;;;15.60;99.90;;;15.76;100.00;100867.66;4819861;29;20245;-75
2022/10/25 10:11:40;;;;;;;478.30;456.25;;;;;;;15.93;100.00;100879.09;4821789;29;20221;-76